sensor_id;sensor_type;location;lat;lon;timestamp;temperature;humidity
35043;DHT22;21230;51.170;17.024;2022-10-29T00:07:45;12.10;99.90
35043;DHT22;21230;51.170;17.024;2022-10-29T00:10:21;12.10;99.90
35043;DHT22;21230;51.170;17.024;2022-10-29T00:12:47;12.00;99.90
35043;DHT22;21230;51.170;17.024;2022-10-29T00:18:40;12.00;99.90
35043;DHT22;21230;51.170;17.024;2022-10-29T00:21:09;11.90;99.90
35043;DHT22;21230;51.170;17.024;2022-10-29T00:26:48;11.80;99.90
35043;DHT22;21230;51.170;17.024;2022-10-29T00:32:18;11.80;99.90
35043;DHT22;21230;51.170;17.024;2022-10-29T00:34:49;12.00;99.90
35043;DHT22;21230;51.170;17.024;2022-10-29T00:37:27;12.00;99.90
35043;DHT22;21230;51.170;17.024;2022-10-29T00:39:56;11.90;99.90
35043;DHT22;21230;51.170;17.024;2022-10-29T00:48:39;12.00;99.90
35043;DHT22;21230;51.170;17.024;2022-10-29T00:51:17;11.90;99.90
35043;DHT22;21230;51.170;17.024;2022-10-29T00:54:02;11.90;99.90
35043;DHT22;21230;51.170;17.024;2022-10-29T00:56:42;11.90;99.90
35043;DHT22;21230;51.170;17.024;2022-10-29T00:59:11;11.80;99.90
35043;DHT22;21230;51.170;17.024;2022-10-29T01:08:26;11.70;99.90
35043;DHT22;21230;51.170;17.024;2022-10-29T01:22:14;11.70;99.90
35043;DHT22;21230;51.170;17.024;2022-10-29T01:33:09;11.70;99.90
35043;DHT22;21230;51.170;17.024;2022-10-29T01:35:50;11.70;99.90
35043;DHT22;21230;51.170;17.024;2022-10-29T01:46:51;11.70;99.90
35043;DHT22;21230;51.170;17.024;2022-10-29T01:49:52;11.70;99.90
35043;DHT22;21230;51.170;17.024;2022-10-29T01:52:15;11.70;99.90
35043;DHT22;21230;51.170;17.024;2022-10-29T01:54:43;11.60;99.90
35043;DHT22;21230;51.170;17.024;2022-10-29T02:11:43;11.50;99.90
35043;DHT22;21230;51.170;17.024;2022-10-29T02:14:27;11.40;99.90
35043;DHT22;21230;51.170;17.024;2022-10-29T02:16:54;11.50;99.90
35043;DHT22;21230;51.170;17.024;2022-10-29T02:19:21;11.50;99.90
35043;DHT22;21230;51.170;17.024;2022-10-29T02:21:49;11.60;99.90
35043;DHT22;21230;51.170;17.024;2022-10-29T02:24:27;11.70;99.90
35043;DHT22;21230;51.170;17.024;2022-10-29T02:26:53;11.80;99.90
35043;DHT22;21230;51.170;17.024;2022-10-29T02:32:23;11.80;99.90
35043;DHT22;21230;51.170;17.024;2022-10-29T02:34:49;11.80;99.90
35043;DHT22;21230;51.170;17.024;2022-10-29T02:40:50;11.80;99.90
35043;DHT22;21230;51.170;17.024;2022-10-29T02:43:28;11.70;99.90
35043;DHT22;21230;51.170;17.024;2022-10-29T02:46:14;11.70;99.90
35043;DHT22;21230;51.170;17.024;2022-10-29T02:48:47;11.60;99.90
35043;DHT22;21230;51.170;17.024;2022-10-29T02:51:13;11.60;99.90
35043;DHT22;21230;51.170;17.024;2022-10-29T02:53:45;11.60;99.90
35043;DHT22;21230;51.170;17.024;2022-10-29T02:56:15;11.60;99.90
35043;DHT22;21230;51.170;17.024;2022-10-29T02:58:41;11.60;99.90
35043;DHT22;21230;51.170;17.024;2022-10-29T03:01:07;11.60;99.90
35043;DHT22;21230;51.170;17.024;2022-10-29T03:03:33;11.60;99.90
35043;DHT22;21230;51.170;17.024;2022-10-29T03:05:59;11.60;99.90
35043;DHT22;21230;51.170;17.024;2022-10-29T03:08:25;11.40;99.90
35043;DHT22;21230;51.170;17.024;2022-10-29T03:10:54;11.30;99.90
35043;DHT22;21230;51.170;17.024;2022-10-29T03:13:20;11.30;99.90
35043;DHT22;21230;51.170;17.024;2022-10-29T03:15:52;11.30;99.90
35043;DHT22;21230;51.170;17.024;2022-10-29T03:18:18;11.20;99.90
35043;DHT22;21230;51.170;17.024;2022-10-29T03:20:56;11.20;99.90
35043;DHT22;21230;51.170;17.024;2022-10-29T03:23:28;11.20;99.90
35043;DHT22;21230;51.170;17.024;2022-10-29T03:25:54;11.10;99.90
35043;DHT22;21230;51.170;17.024;2022-10-29T03:28:21;11.10;99.90
35043;DHT22;21230;51.170;17.024;2022-10-29T03:30:48;11.10;99.90
35043;DHT22;21230;51.170;17.024;2022-10-29T03:33:14;11.10;99.90
35043;DHT22;21230;51.170;17.024;2022-10-29T03:35:40;11.20;99.90
35043;DHT22;21230;51.170;17.024;2022-10-29T03:38:06;11.10;99.90
35043;DHT22;21230;51.170;17.024;2022-10-29T03:40:32;11.10;99.90
35043;DHT22;21230;51.170;17.024;2022-10-29T03:45:32;11.00;99.90
35043;DHT22;21230;51.170;17.024;2022-10-29T03:47:58;11.10;99.90
35043;DHT22;21230;51.170;17.024;2022-10-29T03:50:42;11.10;99.90
35043;DHT22;21230;51.170;17.024;2022-10-29T03:53:08;11.10;99.90
35043;DHT22;21230;51.170;17.024;2022-10-29T03:55:34;11.10;99.90
35043;DHT22;21230;51.170;17.024;2022-10-29T03:58:00;11.10;99.90
35043;DHT22;21230;51.170;17.024;2022-10-29T04:00:26;11.10;99.90
35043;DHT22;21230;51.170;17.024;2022-10-29T04:02:51;11.00;99.90
35043;DHT22;21230;51.170;17.024;2022-10-29T04:05:17;11.00;99.90
35043;DHT22;21230;51.170;17.024;2022-10-29T04:07:43;11.00;99.90
35043;DHT22;21230;51.170;17.024;2022-10-29T04:10:21;10.90;99.90
35043;DHT22;21230;51.170;17.024;2022-10-29T04:12:47;10.90;99.90
35043;DHT22;21230;51.170;17.024;2022-10-29T04:15:13;10.80;99.90
35043;DHT22;21230;51.170;17.024;2022-10-29T04:17:42;10.80;99.90
35043;DHT22;21230;51.170;17.024;2022-10-29T04:20:15;10.80;99.90
35043;DHT22;21230;51.170;17.024;2022-10-29T04:22:40;10.80;99.90
35043;DHT22;21230;51.170;17.024;2022-10-29T04:25:06;10.70;99.90
35043;DHT22;21230;51.170;17.024;2022-10-29T04:30:36;10.70;99.90
35043;DHT22;21230;51.170;17.024;2022-10-29T04:33:02;10.70;99.90
35043;DHT22;21230;51.170;17.024;2022-10-29T04:35:28;10.70;99.90
35043;DHT22;21230;51.170;17.024;2022-10-29T04:37:54;10.60;99.90
35043;DHT22;21230;51.170;17.024;2022-10-29T04:40:23;10.50;99.90
35043;DHT22;21230;51.170;17.024;2022-10-29T04:45:52;10.50;99.90
35043;DHT22;21230;51.170;17.024;2022-10-29T04:51:32;10.40;99.90
35043;DHT22;21230;51.170;17.024;2022-10-29T04:53:58;10.40;99.90
35043;DHT22;21230;51.170;17.024;2022-10-29T04:56:24;10.40;99.90
35043;DHT22;21230;51.170;17.024;2022-10-29T04:58:50;10.30;99.90
35043;DHT22;21230;51.170;17.024;2022-10-29T05:01:17;10.30;99.90
35043;DHT22;21230;51.170;17.024;2022-10-29T05:03:42;10.20;99.90
35043;DHT22;21230;51.170;17.024;2022-10-29T05:06:08;10.20;99.90
35043;DHT22;21230;51.170;17.024;2022-10-29T05:08:34;10.20;99.90
35043;DHT22;21230;51.170;17.024;2022-10-29T05:11:01;10.20;99.90
35043;DHT22;21230;51.170;17.024;2022-10-29T05:13:27;10.20;99.90
35043;DHT22;21230;51.170;17.024;2022-10-29T05:15:53;10.30;99.90
35043;DHT22;21230;51.170;17.024;2022-10-29T05:18:19;10.30;99.90
35043;DHT22;21230;51.170;17.024;2022-10-29T05:24:07;10.20;99.90
35043;DHT22;21230;51.170;17.024;2022-10-29T05:26:33;10.20;99.90
35043;DHT22;21230;51.170;17.024;2022-10-29T05:28:59;10.10;99.90
35043;DHT22;21230;51.170;17.024;2022-10-29T05:37:32;10.00;99.90
35043;DHT22;21230;51.170;17.024;2022-10-29T05:43:02;9.90;99.90
35043;DHT22;21230;51.170;17.024;2022-10-29T05:45:28;10.00;99.90
35043;DHT22;21230;51.170;17.024;2022-10-29T05:47:58;10.00;99.90
35043;DHT22;21230;51.170;17.024;2022-10-29T05:50:24;10.00;99.90
35043;DHT22;21230;51.170;17.024;2022-10-29T05:52:54;10.00;99.90
35043;DHT22;21230;51.170;17.024;2022-10-29T05:58:31;10.00;99.90
35043;DHT22;21230;51.170;17.024;2022-10-29T06:00:57;10.00;99.90
35043;DHT22;21230;51.170;17.024;2022-10-29T06:03:32;10.00;99.90
35043;DHT22;21230;51.170;17.024;2022-10-29T06:05:58;10.10;99.90
35043;DHT22;21230;51.170;17.024;2022-10-29T06:08:24;10.10;99.90
35043;DHT22;21230;51.170;17.024;2022-10-29T06:10:50;10.10;99.90
35043;DHT22;21230;51.170;17.024;2022-10-29T06:13:17;10.10;99.90
35043;DHT22;21230;51.170;17.024;2022-10-29T06:15:43;10.10;99.90
35043;DHT22;21230;51.170;17.024;2022-10-29T06:18:09;10.20;99.90
35043;DHT22;21230;51.170;17.024;2022-10-29T06:20:36;10.30;99.90
35043;DHT22;21230;51.170;17.024;2022-10-29T06:26:05;10.50;99.90
35043;DHT22;21230;51.170;17.024;2022-10-29T06:28:31;10.50;99.90
35043;DHT22;21230;51.170;17.024;2022-10-29T06:30:57;10.70;99.90
35043;DHT22;21230;51.170;17.024;2022-10-29T06:33:23;10.90;99.90
35043;DHT22;21230;51.170;17.024;2022-10-29T06:35:49;11.10;99.90
35043;DHT22;21230;51.170;17.024;2022-10-29T06:38:15;11.30;99.90
35043;DHT22;21230;51.170;17.024;2022-10-29T06:40:41;11.40;99.90
35043;DHT22;21230;51.170;17.024;2022-10-29T06:43:16;11.50;99.90
35043;DHT22;21230;51.170;17.024;2022-10-29T06:45:42;11.60;99.90
35043;DHT22;21230;51.170;17.024;2022-10-29T06:48:08;11.60;99.90
35043;DHT22;21230;51.170;17.024;2022-10-29T06:50:37;11.70;99.90
35043;DHT22;21230;51.170;17.024;2022-10-29T06:53:03;11.80;99.90
35043;DHT22;21230;51.170;17.024;2022-10-29T06:55:30;11.90;99.90
35043;DHT22;21230;51.170;17.024;2022-10-29T06:58:01;12.00;99.90
35043;DHT22;21230;51.170;17.024;2022-10-29T07:00:27;12.10;99.90
35043;DHT22;21230;51.170;17.024;2022-10-29T07:02:57;12.20;99.90
35043;DHT22;21230;51.170;17.024;2022-10-29T07:05:23;12.40;99.90
35043;DHT22;21230;51.170;17.024;2022-10-29T07:13:30;12.70;99.90
35043;DHT22;21230;51.170;17.024;2022-10-29T07:15:57;12.90;99.90
35043;DHT22;21230;51.170;17.024;2022-10-29T07:18:23;13.00;99.90
35043;DHT22;21230;51.170;17.024;2022-10-29T07:20:49;13.10;99.90
35043;DHT22;21230;51.170;17.024;2022-10-29T07:23:18;13.30;99.90
35043;DHT22;21230;51.170;17.024;2022-10-29T07:25:44;13.50;99.90
35043;DHT22;21230;51.170;17.024;2022-10-29T07:28:11;13.70;99.90
35043;DHT22;21230;51.170;17.024;2022-10-29T07:30:47;13.90;99.90
35043;DHT22;21230;51.170;17.024;2022-10-29T07:33:13;14.10;99.90
35043;DHT22;21230;51.170;17.024;2022-10-29T07:35:40;14.20;99.90
35043;DHT22;21230;51.170;17.024;2022-10-29T07:38:06;14.30;99.90
35043;DHT22;21230;51.170;17.024;2022-10-29T07:40:32;14.40;99.90
35043;DHT22;21230;51.170;17.024;2022-10-29T07:46:01;14.50;99.90
35043;DHT22;21230;51.170;17.024;2022-10-29T07:48:27;14.50;99.90
35043;DHT22;21230;51.170;17.024;2022-10-29T07:50:56;14.50;99.90
35043;DHT22;21230;51.170;17.024;2022-10-29T07:53:23;14.60;99.90
35043;DHT22;21230;51.170;17.024;2022-10-29T07:55:58;14.70;99.90
35043;DHT22;21230;51.170;17.024;2022-10-29T07:58:24;14.70;99.90
35043;DHT22;21230;51.170;17.024;2022-10-29T08:00:50;14.80;99.90
35043;DHT22;21230;51.170;17.024;2022-10-29T08:03:16;14.90;99.90
35043;DHT22;21230;51.170;17.024;2022-10-29T08:05:43;15.10;99.90
35043;DHT22;21230;51.170;17.024;2022-10-29T08:08:13;15.30;99.90
35043;DHT22;21230;51.170;17.024;2022-10-29T08:10:39;15.40;99.90
35043;DHT22;21230;51.170;17.024;2022-10-29T08:13:05;15.50;99.90
35043;DHT22;21230;51.170;17.024;2022-10-29T08:15:33;15.60;99.90
35043;DHT22;21230;51.170;17.024;2022-10-29T08:18:06;15.60;99.90
35043;DHT22;21230;51.170;17.024;2022-10-29T08:20:34;15.60;99.90
35043;DHT22;21230;51.170;17.024;2022-10-29T08:23:00;15.70;99.90
35043;DHT22;21230;51.170;17.024;2022-10-29T08:25:26;15.80;99.90
35043;DHT22;21230;51.170;17.024;2022-10-29T08:27:58;15.90;99.90
35043;DHT22;21230;51.170;17.024;2022-10-29T08:30:24;16.00;99.90
35043;DHT22;21230;51.170;17.024;2022-10-29T08:32:50;16.00;99.90
35043;DHT22;21230;51.170;17.024;2022-10-29T08:35:16;16.10;99.90
35043;DHT22;21230;51.170;17.024;2022-10-29T08:37:43;16.20;99.90
35043;DHT22;21230;51.170;17.024;2022-10-29T08:45:37;16.50;99.90
35043;DHT22;21230;51.170;17.024;2022-10-29T08:50:32;16.80;99.90
35043;DHT22;21230;51.170;17.024;2022-10-29T08:53:01;16.90;99.90
35043;DHT22;21230;51.170;17.024;2022-10-29T08:55:39;17.00;99.90
35043;DHT22;21230;51.170;17.024;2022-10-29T08:58:51;17.10;99.90
35043;DHT22;21230;51.170;17.024;2022-10-29T09:00:56;17.00;99.90
35043;DHT22;21230;51.170;17.024;2022-10-29T09:03:25;17.10;99.90
35043;DHT22;21230;51.170;17.024;2022-10-29T09:11:05;17.40;99.90
35043;DHT22;21230;51.170;17.024;2022-10-29T09:21:04;17.90;99.90
35043;DHT22;21230;51.170;17.024;2022-10-29T09:23:42;18.00;99.90
35043;DHT22;21230;51.170;17.024;2022-10-29T09:31:47;18.30;99.90
35043;DHT22;21230;51.170;17.024;2022-10-29T09:34:17;18.40;99.90
35043;DHT22;21230;51.170;17.024;2022-10-29T09:36:44;18.50;99.90
35043;DHT22;21230;51.170;17.024;2022-10-29T09:39:12;18.50;99.90
35043;DHT22;21230;51.170;17.024;2022-10-29T09:41:38;18.60;99.90
35043;DHT22;21230;51.170;17.024;2022-10-29T09:44:14;18.60;99.90
35043;DHT22;21230;51.170;17.024;2022-10-29T09:46:50;18.70;99.90
35043;DHT22;21230;51.170;17.024;2022-10-29T09:49:25;18.70;99.90
35043;DHT22;21230;51.170;17.024;2022-10-29T09:52:02;18.80;99.90
35043;DHT22;21230;51.170;17.024;2022-10-29T09:54:29;18.90;99.90
35043;DHT22;21230;51.170;17.024;2022-10-29T09:56:56;18.90;99.90
35043;DHT22;21230;51.170;17.024;2022-10-29T09:59:27;18.90;99.90
35043;DHT22;21230;51.170;17.024;2022-10-29T10:04:39;18.80;99.90
35043;DHT22;21230;51.170;17.024;2022-10-29T10:07:09;18.80;99.90
35043;DHT22;21230;51.170;17.024;2022-10-29T10:17:27;18.70;99.90
35043;DHT22;21230;51.170;17.024;2022-10-29T10:19:53;18.70;99.90
35043;DHT22;21230;51.170;17.024;2022-10-29T10:22:22;18.70;99.90
35043;DHT22;21230;51.170;17.024;2022-10-29T10:24:49;18.70;99.90
35043;DHT22;21230;51.170;17.024;2022-10-29T10:32:28;18.90;99.90
35043;DHT22;21230;51.170;17.024;2022-10-29T10:34:54;18.80;99.90
35043;DHT22;21230;51.170;17.024;2022-10-29T10:37:22;18.90;99.90
35043;DHT22;21230;51.170;17.024;2022-10-29T10:45:54;18.90;99.90
35043;DHT22;21230;51.170;17.024;2022-10-29T10:48:21;19.00;99.90
35043;DHT22;21230;51.170;17.024;2022-10-29T10:56:57;19.30;99.90
35043;DHT22;21230;51.170;17.024;2022-10-29T10:59:23;19.20;99.90
35043;DHT22;21230;51.170;17.024;2022-10-29T11:01:50;19.20;99.90
35043;DHT22;21230;51.170;17.024;2022-10-29T11:04:29;19.40;99.90
35043;DHT22;21230;51.170;17.024;2022-10-29T11:06:58;19.30;99.90
35043;DHT22;21230;51.170;17.024;2022-10-29T11:09:37;19.40;99.90
35043;DHT22;21230;51.170;17.024;2022-10-29T11:17:02;19.70;99.90
35043;DHT22;21230;51.170;17.024;2022-10-29T11:22:03;19.90;99.90
35043;DHT22;21230;51.170;17.024;2022-10-29T11:24:46;19.90;99.90
35043;DHT22;21230;51.170;17.024;2022-10-29T11:30:03;19.90;99.90
35043;DHT22;21230;51.170;17.024;2022-10-29T11:32:33;19.90;99.90
35043;DHT22;21230;51.170;17.024;2022-10-29T11:37:41;19.80;99.90
35043;DHT22;21230;51.170;17.024;2022-10-29T11:40:17;19.70;99.90
35043;DHT22;21230;51.170;17.024;2022-10-29T11:42:46;19.70;99.90
35043;DHT22;21230;51.170;17.024;2022-10-29T11:45:58;19.70;99.90
35043;DHT22;21230;51.170;17.024;2022-10-29T11:48:11;19.80;99.90
35043;DHT22;21230;51.170;17.024;2022-10-29T11:53:40;19.80;99.90
35043;DHT22;21230;51.170;17.024;2022-10-29T11:56:21;19.90;99.90
35043;DHT22;21230;51.170;17.024;2022-10-29T11:59:14;20.00;99.90
35043;DHT22;21230;51.170;17.024;2022-10-29T12:04:33;20.10;99.90
35043;DHT22;21230;51.170;17.024;2022-10-29T12:12:16;20.10;99.90
35043;DHT22;21230;51.170;17.024;2022-10-29T12:19:40;20.40;99.90
35043;DHT22;21230;51.170;17.024;2022-10-29T12:28:11;20.20;99.90
35043;DHT22;21230;51.170;17.024;2022-10-29T12:30:09;20.20;99.90
35043;DHT22;21230;51.170;17.024;2022-10-29T12:32:37;20.20;99.90
35043;DHT22;21230;51.170;17.024;2022-10-29T12:40:38;20.10;99.90
35043;DHT22;21230;51.170;17.024;2022-10-29T12:43:09;20.10;99.90
35043;DHT22;21230;51.170;17.024;2022-10-29T12:45:41;20.10;99.90
35043;DHT22;21230;51.170;17.024;2022-10-29T12:54:01;20.20;99.90
35043;DHT22;21230;51.170;17.024;2022-10-29T12:56:31;20.20;99.90
35043;DHT22;21230;51.170;17.024;2022-10-29T12:59:20;20.20;99.90
35043;DHT22;21230;51.170;17.024;2022-10-29T13:01:45;20.20;99.90
35043;DHT22;21230;51.170;17.024;2022-10-29T13:04:23;20.30;99.90
35043;DHT22;21230;51.170;17.024;2022-10-29T13:09:29;20.20;99.90
35043;DHT22;21230;51.170;17.024;2022-10-29T13:11:56;20.20;99.90
35043;DHT22;21230;51.170;17.024;2022-10-29T13:17:02;20.10;99.90
35043;DHT22;21230;51.170;17.024;2022-10-29T13:19:36;19.90;99.90
35043;DHT22;21230;51.170;17.024;2022-10-29T13:22:05;19.80;99.90
35043;DHT22;21230;51.170;17.024;2022-10-29T13:24:36;19.80;99.90
35043;DHT22;21230;51.170;17.024;2022-10-29T13:27:03;19.80;99.90
35043;DHT22;21230;51.170;17.024;2022-10-29T13:29:49;19.80;99.90
35043;DHT22;21230;51.170;17.024;2022-10-29T13:32:28;19.90;99.90
35043;DHT22;21230;51.170;17.024;2022-10-29T13:34:55;20.00;99.90
35043;DHT22;21230;51.170;17.024;2022-10-29T13:37:38;20.00;99.90
35043;DHT22;21230;51.170;17.024;2022-10-29T13:45:22;19.90;99.90
35043;DHT22;21230;51.170;17.024;2022-10-29T13:47:48;19.80;99.90
35043;DHT22;21230;51.170;17.024;2022-10-29T13:50:15;19.80;99.90
35043;DHT22;21230;51.170;17.024;2022-10-29T13:52:42;19.70;99.90
35043;DHT22;21230;51.170;17.024;2022-10-29T13:55:15;19.70;99.90
35043;DHT22;21230;51.170;17.024;2022-10-29T14:02:45;19.50;99.90
35043;DHT22;21230;51.170;17.024;2022-10-29T14:08:12;19.50;99.90
35043;DHT22;21230;51.170;17.024;2022-10-29T14:15:35;19.40;99.90
35043;DHT22;21230;51.170;17.024;2022-10-29T14:18:16;19.40;99.90
35043;DHT22;21230;51.170;17.024;2022-10-29T14:20:43;19.30;99.90
35043;DHT22;21230;51.170;17.024;2022-10-29T14:23:18;19.30;99.90
35043;DHT22;21230;51.170;17.024;2022-10-29T14:25:44;19.20;99.90
35043;DHT22;21230;51.170;17.024;2022-10-29T14:30:58;19.30;99.90
35043;DHT22;21230;51.170;17.024;2022-10-29T14:33:28;19.10;99.90
35043;DHT22;21230;51.170;17.024;2022-10-29T14:38:51;19.20;99.90
35043;DHT22;21230;51.170;17.024;2022-10-29T14:41:19;19.10;99.90
35043;DHT22;21230;51.170;17.024;2022-10-29T14:44:04;19.10;99.90
35043;DHT22;21230;51.170;17.024;2022-10-29T14:46:32;19.00;99.90
35043;DHT22;21230;51.170;17.024;2022-10-29T14:54:47;19.00;99.90
35043;DHT22;21230;51.170;17.024;2022-10-29T14:57:18;18.90;99.90
35043;DHT22;21230;51.170;17.024;2022-10-29T15:03:00;18.80;99.90
35043;DHT22;21230;51.170;17.024;2022-10-29T15:05:32;18.80;99.90
35043;DHT22;21230;51.170;17.024;2022-10-29T15:08:32;18.70;99.90
35043;DHT22;21230;51.170;17.024;2022-10-29T15:10:58;18.70;99.90
35043;DHT22;21230;51.170;17.024;2022-10-29T15:18:25;18.50;99.90
35043;DHT22;21230;51.170;17.024;2022-10-29T15:20:58;18.50;99.90
35043;DHT22;21230;51.170;17.024;2022-10-29T15:23:28;18.40;99.90
35043;DHT22;21230;51.170;17.024;2022-10-29T15:29:09;18.30;99.90
35043;DHT22;21230;51.170;17.024;2022-10-29T15:31:43;18.20;99.90
35043;DHT22;21230;51.170;17.024;2022-10-29T15:34:13;18.20;99.90
35043;DHT22;21230;51.170;17.024;2022-10-29T15:36:46;18.10;99.90
35043;DHT22;21230;51.170;17.024;2022-10-29T15:39:20;18.10;99.90
35043;DHT22;21230;51.170;17.024;2022-10-29T15:41:59;18.00;99.90
35043;DHT22;21230;51.170;17.024;2022-10-29T15:44:40;17.90;99.90
35043;DHT22;21230;51.170;17.024;2022-10-29T15:47:26;17.90;99.90
35043;DHT22;21230;51.170;17.024;2022-10-29T15:49:52;17.80;99.90
35043;DHT22;21230;51.170;17.024;2022-10-29T15:52:18;17.80;99.90
35043;DHT22;21230;51.170;17.024;2022-10-29T15:54:45;17.70;99.90
35043;DHT22;21230;51.170;17.024;2022-10-29T15:57:12;17.60;99.90
35043;DHT22;21230;51.170;17.024;2022-10-29T15:59:39;17.60;99.90
35043;DHT22;21230;51.170;17.024;2022-10-29T16:02:11;17.50;99.90
35043;DHT22;21230;51.170;17.024;2022-10-29T16:04:37;17.50;99.90
35043;DHT22;21230;51.170;17.024;2022-10-29T16:07:04;17.40;99.90
35043;DHT22;21230;51.170;17.024;2022-10-29T16:09:30;17.30;99.90
35043;DHT22;21230;51.170;17.024;2022-10-29T16:11:56;17.30;99.90
35043;DHT22;21230;51.170;17.024;2022-10-29T16:14:23;17.20;99.90
35043;DHT22;21230;51.170;17.024;2022-10-29T16:16:49;17.20;99.90
35043;DHT22;21230;51.170;17.024;2022-10-29T16:19:15;17.10;99.90
35043;DHT22;21230;51.170;17.024;2022-10-29T16:21:41;17.10;99.90
35043;DHT22;21230;51.170;17.024;2022-10-29T16:24:09;17.00;99.90
35043;DHT22;21230;51.170;17.024;2022-10-29T16:26:47;17.10;99.90
35043;DHT22;21230;51.170;17.024;2022-10-29T16:29:13;17.20;99.90
35043;DHT22;21230;51.170;17.024;2022-10-29T16:31:41;17.10;99.90
35043;DHT22;21230;51.170;17.024;2022-10-29T16:34:08;17.10;99.90
35043;DHT22;21230;51.170;17.024;2022-10-29T16:36:37;17.00;99.90
35043;DHT22;21230;51.170;17.024;2022-10-29T16:39:07;17.00;99.90
35043;DHT22;21230;51.170;17.024;2022-10-29T16:41:33;16.90;99.90
35043;DHT22;21230;51.170;17.024;2022-10-29T16:43:59;16.90;99.90
35043;DHT22;21230;51.170;17.024;2022-10-29T16:46:25;16.90;99.90
35043;DHT22;21230;51.170;17.024;2022-10-29T16:48:52;16.80;99.90
35043;DHT22;21230;51.170;17.024;2022-10-29T16:56:13;16.80;99.90
35043;DHT22;21230;51.170;17.024;2022-10-29T16:58:39;16.80;99.90
35043;DHT22;21230;51.170;17.024;2022-10-29T17:01:06;16.70;99.90
35043;DHT22;21230;51.170;17.024;2022-10-29T17:03:32;16.70;99.90
35043;DHT22;21230;51.170;17.024;2022-10-29T17:06:03;16.70;99.90
35043;DHT22;21230;51.170;17.024;2022-10-29T17:08:30;16.70;99.90
35043;DHT22;21230;51.170;17.024;2022-10-29T17:10:57;16.70;99.90
35043;DHT22;21230;51.170;17.024;2022-10-29T17:13:23;16.70;99.90
35043;DHT22;21230;51.170;17.024;2022-10-29T17:22:24;16.70;99.90
35043;DHT22;21230;51.170;17.024;2022-10-29T17:24:50;16.70;99.90
35043;DHT22;21230;51.170;17.024;2022-10-29T17:27:16;16.70;99.90
35043;DHT22;21230;51.170;17.024;2022-10-29T17:29:54;16.70;99.90
35043;DHT22;21230;51.170;17.024;2022-10-29T17:32:21;16.60;99.90
35043;DHT22;21230;51.170;17.024;2022-10-29T17:34:47;16.60;99.90
35043;DHT22;21230;51.170;17.024;2022-10-29T17:37:17;16.60;99.90
35043;DHT22;21230;51.170;17.024;2022-10-29T17:40:03;16.60;99.90
35043;DHT22;21230;51.170;17.024;2022-10-29T17:42:36;16.60;99.90
35043;DHT22;21230;51.170;17.024;2022-10-29T17:45:02;16.60;99.90
35043;DHT22;21230;51.170;17.024;2022-10-29T17:47:28;16.60;99.90
35043;DHT22;21230;51.170;17.024;2022-10-29T17:50:00;16.50;99.90
35043;DHT22;21230;51.170;17.024;2022-10-29T17:52:29;16.50;99.90
35043;DHT22;21230;51.170;17.024;2022-10-29T17:54:55;16.50;99.90
35043;DHT22;21230;51.170;17.024;2022-10-29T17:57:21;16.50;99.90
35043;DHT22;21230;51.170;17.024;2022-10-29T18:03:04;16.50;99.90
35043;DHT22;21230;51.170;17.024;2022-10-29T18:05:34;16.50;99.90
35043;DHT22;21230;51.170;17.024;2022-10-29T18:08:09;16.50;99.90
35043;DHT22;21230;51.170;17.024;2022-10-29T18:10:51;16.50;99.90
35043;DHT22;21230;51.170;17.024;2022-10-29T18:13:34;16.40;99.90
35043;DHT22;21230;51.170;17.024;2022-10-29T18:16:03;16.40;99.90
35043;DHT22;21230;51.170;17.024;2022-10-29T18:18:37;16.40;99.90
35043;DHT22;21230;51.170;17.024;2022-10-29T18:21:16;16.40;99.90
35043;DHT22;21230;51.170;17.024;2022-10-29T18:26:49;16.50;99.90
35043;DHT22;21230;51.170;17.024;2022-10-29T18:32:19;16.50;99.90
35043;DHT22;21230;51.170;17.024;2022-10-29T18:34:54;16.40;99.90
35043;DHT22;21230;51.170;17.024;2022-10-29T18:37:20;16.40;99.90
35043;DHT22;21230;51.170;17.024;2022-10-29T18:39:47;16.30;99.90
35043;DHT22;21230;51.170;17.024;2022-10-29T18:42:32;16.30;99.90
35043;DHT22;21230;51.170;17.024;2022-10-29T18:45:08;16.30;99.90
35043;DHT22;21230;51.170;17.024;2022-10-29T18:47:34;16.30;99.90
35043;DHT22;21230;51.170;17.024;2022-10-29T18:50:05;16.20;99.90
35043;DHT22;21230;51.170;17.024;2022-10-29T18:55:31;16.20;99.90
35043;DHT22;21230;51.170;17.024;2022-10-29T19:01:01;16.30;99.90
35043;DHT22;21230;51.170;17.024;2022-10-29T19:03:41;16.30;99.90
35043;DHT22;21230;51.170;17.024;2022-10-29T19:09:00;16.40;99.90
35043;DHT22;21230;51.170;17.024;2022-10-29T19:14:20;16.30;99.90
35043;DHT22;21230;51.170;17.024;2022-10-29T19:17:08;16.30;99.90
35043;DHT22;21230;51.170;17.024;2022-10-29T19:19:40;16.30;99.90
35043;DHT22;21230;51.170;17.024;2022-10-29T19:22:06;16.20;99.90
35043;DHT22;21230;51.170;17.024;2022-10-29T19:24:38;16.20;99.90
35043;DHT22;21230;51.170;17.024;2022-10-29T19:27:12;16.20;99.90
35043;DHT22;21230;51.170;17.024;2022-10-29T19:29:39;16.30;99.90
35043;DHT22;21230;51.170;17.024;2022-10-29T19:32:40;16.20;99.90
35043;DHT22;21230;51.170;17.024;2022-10-29T19:35:09;16.10;99.90
35043;DHT22;21230;51.170;17.024;2022-10-29T19:37:38;16.00;99.90
35043;DHT22;21230;51.170;17.024;2022-10-29T19:40:08;16.00;99.90
35043;DHT22;21230;51.170;17.024;2022-10-29T19:50:27;15.80;99.90
35043;DHT22;21230;51.170;17.024;2022-10-29T19:56:29;15.70;99.90
35043;DHT22;21230;51.170;17.024;2022-10-29T19:59:21;15.70;99.90
35043;DHT22;21230;51.170;17.024;2022-10-29T20:01:56;15.60;99.90
35043;DHT22;21230;51.170;17.024;2022-10-29T20:04:26;15.60;99.90
35043;DHT22;21230;51.170;17.024;2022-10-29T20:07:07;15.60;99.90
35043;DHT22;21230;51.170;17.024;2022-10-29T20:10:02;15.50;99.90
35043;DHT22;21230;51.170;17.024;2022-10-29T20:12:45;15.50;99.90
35043;DHT22;21230;51.170;17.024;2022-10-29T20:15:17;15.40;99.90
35043;DHT22;21230;51.170;17.024;2022-10-29T20:17:47;15.40;99.90
35043;DHT22;21230;51.170;17.024;2022-10-29T20:23:02;15.20;99.90
35043;DHT22;21230;51.170;17.024;2022-10-29T21:27:52;14.60;99.90
35043;DHT22;21230;51.170;17.024;2022-10-29T21:32:55;14.30;99.90
35043;DHT22;21230;51.170;17.024;2022-10-29T21:35:20;14.30;99.90
35043;DHT22;21230;51.170;17.024;2022-10-29T21:38:30;14.30;99.90
35043;DHT22;21230;51.170;17.024;2022-10-29T21:40:57;14.20;99.90
35043;DHT22;21230;51.170;17.024;2022-10-29T21:44:01;14.20;99.90
35043;DHT22;21230;51.170;17.024;2022-10-29T21:47:00;14.10;99.90
35043;DHT22;21230;51.170;17.024;2022-10-29T21:49:40;14.10;99.90